createdAt,value
2023-05-05T00:00:59.662Z,101370.81
2023-05-05T00:03:27.084Z,101370.88
2023-05-05T00:05:55.338Z,101376.16
2023-05-05T00:08:22.587Z,101354.94
2023-05-05T00:10:50.709Z,101348.72
2023-05-05T00:13:18.611Z,101354.06
2023-05-05T00:15:47.303Z,101339.03
2023-05-05T00:18:17.124Z,101335.50
2023-05-05T00:20:44.809Z,101347.94
2023-05-05T00:23:11.667Z,101386.84
2023-05-05T00:25:38.558Z,101389.50
2023-05-05T00:28:05.560Z,101391.25
2023-05-05T00:30:33.515Z,101373.56
2023-05-05T00:33:00.673Z,101372.66
2023-05-05T00:35:27.590Z,101379.75
2023-05-05T00:37:55.182Z,101390.38
2023-05-05T00:40:22.092Z,101388.59
2023-05-05T00:42:52.324Z,101389.44
2023-05-05T00:45:20.204Z,101393.88
2023-05-05T00:47:53.638Z,101387.66
2023-05-05T00:50:25.496Z,101394.72
2023-05-05T00:53:02.851Z,101386.78
2023-05-05T00:55:30.439Z,101402.63
2023-05-05T00:57:58.447Z,101399.06
2023-05-05T01:00:25.913Z,101399.06
2023-05-05T01:02:53.198Z,101402.53
2023-05-05T01:05:22.169Z,101400.72
2023-05-05T01:08:27.791Z,101401.56
2023-05-05T01:11:02.342Z,101399.81
2023-05-05T01:13:34.393Z,101409.53
2023-05-05T01:16:20.061Z,101409.44
2023-05-05T01:18:54.287Z,101412.06
2023-05-05T01:21:43.229Z,101413.81
2023-05-05T01:24:31.986Z,101410.28
2023-05-05T01:27:13.878Z,101413.78
2023-05-05T01:30:05.428Z,101412.00
2023-05-05T01:32:38.630Z,101419.94
2023-05-05T01:35:19.908Z,101422.56
2023-05-05T01:37:49.670Z,101423.38
2023-05-05T01:40:20.091Z,101415.41
2023-05-05T01:42:48.299Z,101412.75
2023-05-05T01:45:16.835Z,101415.34
2023-05-05T01:47:44.704Z,101412.66
2023-05-05T01:50:12.289Z,101414.38
2023-05-05T01:52:40.128Z,101413.44
2023-05-05T01:55:08.538Z,101419.59
2023-05-05T01:57:36.852Z,101411.59
2023-05-05T02:00:04.596Z,101412.50
2023-05-05T02:02:32.828Z,101410.69
2023-05-05T02:05:00.202Z,101419.50
2023-05-05T02:07:28.038Z,101418.56
2023-05-05T02:09:55.580Z,101421.09
2023-05-05T02:12:22.770Z,101430.72
2023-05-05T02:14:50.990Z,101434.25
2023-05-05T02:17:18.601Z,101444.81
2023-05-05T02:19:45.924Z,101447.47
2023-05-05T02:22:12.809Z,101445.66
2023-05-05T02:24:39.748Z,101435.88
2023-05-05T02:27:07.387Z,101427.00
2023-05-05T02:29:47.359Z,101441.06
2023-05-05T02:32:21.426Z,101455.00
2023-05-05T02:34:50.141Z,101460.25
2023-05-05T02:37:21.382Z,101462.91
2023-05-05T02:39:58.594Z,101450.59
2023-05-05T02:42:29.690Z,101441.72
2023-05-05T02:44:59.862Z,101429.34
2023-05-05T02:47:36.962Z,101422.28
2023-05-05T02:50:07.428Z,101436.25
2023-05-05T02:52:35.232Z,101444.09
2023-05-05T02:55:03.566Z,101449.34
2023-05-05T02:57:49.118Z,101455.50
2023-05-05T03:00:34.106Z,101458.97
2023-05-05T03:03:24.626Z,101451.94
2023-05-05T03:06:00.698Z,101453.66
2023-05-05T03:08:42.882Z,101449.25
2023-05-05T03:11:26.396Z,101451.84
2023-05-05T03:14:04.512Z,101457.09
2023-05-05T03:16:32.402Z,101466.81
2023-05-05T03:18:59.945Z,101476.50
2023-05-05T03:21:27.143Z,101473.00
2023-05-05T03:23:53.994Z,101485.31
2023-05-05T03:26:20.892Z,101472.09
2023-05-05T03:28:47.864Z,101473.78
2023-05-05T03:31:14.770Z,101472.97
2023-05-05T03:33:41.684Z,101469.38
2023-05-05T03:36:08.657Z,101464.97
2023-05-05T03:38:35.519Z,101459.63
2023-05-05T03:41:05.673Z,101460.34
2023-05-05T03:43:32.560Z,101467.34
2023-05-05T03:45:59.496Z,101465.53
2023-05-05T03:48:26.701Z,101466.47
2023-05-05T03:50:54.073Z,101466.34
2023-05-05T03:53:20.957Z,101469.88
2023-05-05T03:55:55.345Z,101466.34
2023-05-05T03:58:22.223Z,101468.03
2023-05-05T04:01:04.397Z,101472.47
2023-05-05T04:03:31.491Z,101479.47
2023-05-05T04:05:58.590Z,101474.97
2023-05-05T04:08:25.568Z,101481.09
2023-05-05T04:10:52.456Z,101477.50
2023-05-05T04:13:19.322Z,101476.69
2023-05-05T04:15:46.553Z,101479.28
2023-05-05T04:18:13.558Z,101474.91
2023-05-05T04:20:40.577Z,101477.41
2023-05-05T04:23:07.451Z,101478.34
2023-05-05T04:25:34.399Z,101480.16
2023-05-05T04:28:01.783Z,101483.66
2023-05-05T04:30:28.865Z,101480.19
2023-05-05T04:32:55.861Z,101488.13
2023-05-05T04:35:23.389Z,101493.53
2023-05-05T04:37:51.435Z,101486.50
2023-05-05T04:40:18.518Z,101479.53
2023-05-05T04:42:45.534Z,101481.25
2023-05-05T04:45:13.155Z,101482.13
2023-05-05T04:47:40.683Z,101472.41
2023-05-05T04:50:08.442Z,101470.66
2023-05-05T04:52:35.643Z,101473.31
2023-05-05T04:55:04.965Z,101492.59
2023-05-05T04:57:32.140Z,101482.19
2023-05-05T05:00:00.430Z,101484.88
2023-05-05T05:02:27.457Z,101481.34
2023-05-05T05:04:54.377Z,101484.94
2023-05-05T05:07:21.362Z,101484.22
2023-05-05T05:09:48.243Z,101494.75
2023-05-05T05:12:15.133Z,101489.47
2023-05-05T05:14:42.082Z,101493.06
2023-05-05T05:17:09.017Z,101494.91
2023-05-05T05:19:35.917Z,101491.53
2023-05-05T05:22:02.824Z,101492.50
2023-05-05T05:24:30.050Z,101494.22
2023-05-05T05:26:56.925Z,101497.81
2023-05-05T05:29:23.867Z,101507.56
2023-05-05T05:31:50.883Z,101506.72
2023-05-05T05:34:17.845Z,101510.31
2023-05-05T05:36:44.673Z,101520.06
2023-05-05T05:39:11.533Z,101518.41
2023-05-05T05:41:38.472Z,101520.31
2023-05-05T05:44:05.433Z,101523.09
2023-05-05T05:46:32.319Z,101528.59
2023-05-05T05:48:59.250Z,101523.84
2023-05-05T05:51:26.543Z,101516.06
2023-05-05T05:53:53.400Z,101517.03
2023-05-05T05:56:20.287Z,101523.25
2023-05-05T05:58:48.683Z,101515.25
2023-05-05T06:01:16.048Z,101525.84
2023-05-05T06:03:42.963Z,101524.97
2023-05-05T06:06:09.989Z,101528.47
2023-05-05T06:08:36.837Z,101520.47
2023-05-05T06:11:03.765Z,101524.00
2023-05-05T06:13:30.884Z,101527.50
2023-05-05T06:15:57.784Z,101532.81
2023-05-05T06:18:24.696Z,101523.91
2023-05-05T06:20:52.343Z,101529.19
2023-05-05T06:23:19.407Z,101520.28
2023-05-05T06:25:46.794Z,101513.16
2023-05-05T06:28:13.690Z,101522.03
2023-05-05T06:30:40.739Z,101522.91
2023-05-05T06:33:07.674Z,101531.78
2023-05-05T06:35:34.627Z,101526.44
2023-05-05T06:38:01.471Z,101528.19
2023-05-05T06:40:28.352Z,101523.72
2023-05-05T06:42:55.479Z,101522.81
2023-05-05T06:45:22.385Z,101535.22
2023-05-05T06:47:49.623Z,101538.78
2023-05-05T06:50:16.661Z,101545.00
2023-05-05T06:52:43.560Z,101544.97
2023-05-05T06:55:10.451Z,101544.06
2023-05-05T06:57:37.341Z,101539.59
2023-05-05T07:00:06.068Z,101534.28
2023-05-05T07:02:33.792Z,101532.50
2023-05-05T07:05:00.827Z,101530.69
2023-05-05T07:07:27.715Z,101541.34
2023-05-05T07:09:54.615Z,101539.56
2023-05-05T07:12:21.932Z,101531.53
2023-05-05T07:14:48.941Z,101535.97
2023-05-05T07:17:16.035Z,101535.06
2023-05-05T07:19:43.182Z,101536.84
2023-05-05T07:22:10.086Z,101537.72
2023-05-05T07:24:36.960Z,101530.63
2023-05-05T07:27:03.923Z,101539.50
2023-05-05T07:29:31.079Z,101530.59
2023-05-05T07:31:57.980Z,101527.06
2023-05-05T07:34:24.888Z,101526.16
2023-05-05T07:36:51.786Z,101534.16
2023-05-05T07:39:19.467Z,101530.59
2023-05-05T07:41:46.481Z,101536.84
2023-05-05T07:44:13.444Z,101548.38
2023-05-05T07:46:40.403Z,101542.16
2023-05-05T07:49:07.296Z,101547.50
2023-05-05T07:51:34.889Z,101535.94
2023-05-05T07:54:01.918Z,101541.25
2023-05-05T07:56:28.861Z,101538.59
2023-05-05T07:58:55.936Z,101535.03
2023-05-05T08:01:23.095Z,101549.25
2023-05-05T08:03:50.120Z,101551.91
2023-05-05T08:06:21.810Z,101546.56
2023-05-05T08:08:49.073Z,101553.69
2023-05-05T08:11:16.777Z,101559.00
2023-05-05T08:13:44.290Z,101555.47
2023-05-05T08:16:14.847Z,101561.69
2023-05-05T08:18:41.893Z,101572.31
2023-05-05T08:21:09.657Z,101560.78
2023-05-05T08:23:37.401Z,101561.66
2023-05-05T08:26:06.319Z,101554.56
2023-05-05T08:28:34.646Z,101558.13
2023-05-05T08:31:01.892Z,101551.91
2023-05-05T08:33:28.846Z,101554.56
2023-05-05T08:35:55.696Z,101556.31
2023-05-05T08:38:22.741Z,101543.00
2023-05-05T08:40:51.261Z,101545.69
2023-05-05T08:43:22.737Z,101546.56
2023-05-05T08:45:51.354Z,101550.13
2023-05-05T08:48:21.014Z,101546.56
2023-05-05T08:50:52.811Z,101548.34
2023-05-05T08:53:30.330Z,101559.00
2023-05-05T08:55:59.209Z,101560.78
2023-05-05T08:58:28.847Z,101559.88
2023-05-05T09:00:56.565Z,101557.22
2023-05-05T09:03:23.575Z,101555.47
2023-05-05T09:05:51.060Z,101559.00
2023-05-05T09:08:18.023Z,101563.47
2023-05-05T09:10:45.470Z,101568.78
2023-05-05T09:13:28.388Z,101560.78
2023-05-05T09:15:55.261Z,101557.22
2023-05-05T09:18:22.114Z,101562.53
2023-05-05T09:20:49.080Z,101540.34
2023-05-05T09:23:17.671Z,101538.56
2023-05-05T09:25:47.123Z,101540.34
2023-05-05T09:28:15.602Z,101540.34
2023-05-05T09:30:44.749Z,101547.44
2023-05-05T09:33:12.077Z,101561.66
2023-05-05T09:35:53.759Z,101563.44
2023-05-05T09:38:21.820Z,101556.31
2023-05-05T09:40:50.414Z,101564.31
2023-05-05T09:43:18.215Z,101567.88
2023-05-05T09:45:45.249Z,101565.22
2023-05-05T09:48:25.591Z,101575.84
2023-05-05T09:50:53.064Z,101584.75
2023-05-05T09:53:20.048Z,101589.19
2023-05-05T09:56:01.001Z,101580.28
2023-05-05T09:58:30.692Z,101582.06
2023-05-05T10:00:58.869Z,101573.19
2023-05-05T10:03:26.134Z,101576.75
2023-05-05T10:05:54.474Z,101588.28
2023-05-05T10:08:24.348Z,101588.28
2023-05-05T10:10:55.469Z,101587.41
2023-05-05T10:13:24.306Z,101592.72
2023-05-05T10:15:53.469Z,101593.63
2023-05-05T10:18:23.234Z,101596.28
2023-05-05T10:20:57.184Z,101610.50
2023-05-05T10:23:27.313Z,101614.06
2023-05-05T10:25:59.424Z,101631.84
2023-05-05T10:28:33.090Z,101633.63
2023-05-05T10:31:02.177Z,101625.63
2023-05-05T10:33:39.732Z,101604.28
2023-05-05T10:36:07.760Z,101600.72
2023-05-05T10:38:36.088Z,101590.97
2023-05-05T10:41:03.155Z,101580.28
2023-05-05T10:43:31.418Z,101574.06
2023-05-05T10:45:59.048Z,101566.97
2023-05-05T10:49:18.466Z,101550.97
2023-05-05T10:52:17.449Z,101550.97
2023-05-05T10:55:07.757Z,101566.06
2023-05-05T10:57:39.160Z,101549.19
2023-05-05T11:00:08.532Z,101549.19
2023-05-05T11:02:36.569Z,101544.75
2023-05-05T11:05:15.225Z,101542.09
2023-05-05T11:07:43.364Z,101544.75
2023-05-05T11:10:12.179Z,101549.19
2023-05-05T11:12:54.120Z,101545.63
2023-05-05T11:15:30.102Z,101547.41
2023-05-05T11:17:58.671Z,101549.19
2023-05-05T11:20:39.795Z,101551.88
2023-05-05T11:23:06.878Z,101549.19
2023-05-05T11:25:37.182Z,101546.53
2023-05-05T11:28:12.246Z,101538.53
2023-05-05T11:30:58.497Z,101538.56
2023-05-05T11:33:28.351Z,101540.34
2023-05-05T11:36:05.744Z,101539.44
2023-05-05T11:38:36.411Z,101542.09
2023-05-05T11:41:13.291Z,101545.66
2023-05-05T11:43:41.909Z,101540.34
2023-05-05T11:46:15.951Z,101550.09
2023-05-05T11:48:53.057Z,101548.34
2023-05-05T11:51:19.992Z,101533.25
2023-05-05T11:53:48.391Z,101536.78
2023-05-05T11:56:19.170Z,101527.91
2023-05-05T11:58:46.819Z,101540.34
2023-05-05T12:01:14.094Z,101543.00
2023-05-05T12:03:41.624Z,101532.34
2023-05-05T12:06:08.795Z,101523.47
2023-05-05T12:08:36.692Z,101524.34
2023-05-05T12:11:07.525Z,101540.34
2023-05-05T12:13:34.803Z,101570.53
2023-05-05T12:16:12.832Z,101576.75
2023-05-05T12:18:40.621Z,101590.97
2023-05-05T12:21:20.426Z,101580.31
2023-05-05T12:23:47.602Z,101578.53
2023-05-05T12:26:31.383Z,101581.19
2023-05-05T12:28:59.707Z,101575.84
2023-05-05T12:31:42.214Z,101586.53
2023-05-05T12:34:10.408Z,101582.97
2023-05-05T12:36:37.689Z,101582.97
2023-05-05T12:39:05.604Z,101578.50
2023-05-05T12:41:33.360Z,101582.97
2023-05-05T12:44:01.874Z,101577.63
2023-05-05T12:46:31.973Z,101568.72
2023-05-05T12:49:06.570Z,101572.28
2023-05-05T12:51:35.112Z,101575.84
2023-05-05T12:54:09.940Z,101572.28
2023-05-05T12:56:41.531Z,101574.06
2023-05-05T12:59:10.383Z,101576.72
2023-05-05T13:01:48.191Z,101580.28
2023-05-05T13:04:16.063Z,101577.63
2023-05-05T13:06:47.477Z,101571.41
2023-05-05T13:09:30.291Z,101569.63
2023-05-05T13:11:57.862Z,101562.53
2023-05-05T13:14:24.852Z,101544.75
2023-05-05T13:16:52.800Z,101547.41
2023-05-05T13:19:19.650Z,101543.88
2023-05-05T13:21:46.732Z,101550.97
2023-05-05T13:24:28.153Z,101541.22
2023-05-05T13:27:00.413Z,101543.00
2023-05-05T13:29:31.412Z,101537.66
2023-05-05T13:31:58.893Z,101539.41
2023-05-05T13:34:25.900Z,101534.97
2023-05-05T13:36:52.826Z,101531.41
2023-05-05T13:39:19.973Z,101531.41
2023-05-05T13:41:46.906Z,101527.84
2023-05-05T13:44:14.250Z,101529.63
2023-05-05T13:46:42.762Z,101529.59
2023-05-05T13:49:09.817Z,101528.72
2023-05-05T13:51:38.293Z,101534.91
2023-05-05T13:54:06.519Z,101547.38
2023-05-05T13:56:34.295Z,101542.03
2023-05-05T13:59:01.425Z,101545.59
2023-05-05T14:01:28.481Z,101557.13
2023-05-05T14:03:57.459Z,101558.03
2023-05-05T14:06:24.982Z,101576.69
2023-05-05T14:08:52.067Z,101580.22
2023-05-05T14:11:20.664Z,101559.81
2023-05-05T14:13:48.099Z,101557.13
2023-05-05T14:16:15.148Z,101553.56
2023-05-05T14:18:42.133Z,101538.47
2023-05-05T14:21:09.066Z,101537.59
2023-05-05T14:23:35.972Z,101535.81
2023-05-05T14:26:02.895Z,101534.91
2023-05-05T14:28:29.771Z,101531.38
2023-05-05T14:30:56.773Z,101521.59
2023-05-05T14:33:23.744Z,101516.25
2023-05-05T14:35:50.715Z,101514.50
2023-05-05T14:38:17.577Z,101521.59
2023-05-05T14:40:44.552Z,101513.63
2023-05-05T14:43:11.409Z,101508.28
2023-05-05T14:45:38.322Z,101511.81
2023-05-05T14:48:05.353Z,101508.25
2023-05-05T14:50:32.290Z,101507.38
2023-05-05T14:52:59.178Z,101506.50
2023-05-05T14:55:26.444Z,101503.81
2023-05-05T14:57:53.403Z,101508.28
2023-05-05T15:00:20.434Z,101500.59
2023-05-05T15:02:48.335Z,101507.28
2023-05-05T15:05:15.612Z,101517.03
2023-05-05T15:07:42.767Z,101514.34
2023-05-05T15:10:10.168Z,101517.91
2023-05-05T15:12:37.142Z,101524.09
2023-05-05T15:15:04.264Z,101522.34
2023-05-05T15:17:31.870Z,101521.47
2023-05-05T15:19:58.857Z,101521.47
2023-05-05T15:22:26.035Z,101525.03
2023-05-05T15:24:53.204Z,101517.91
2023-05-05T15:27:20.180Z,101533.88
2023-05-05T15:29:47.210Z,101517.94
2023-05-05T15:32:14.508Z,101523.22
2023-05-05T15:34:42.079Z,101523.22
2023-05-05T15:37:09.004Z,101522.38
2023-05-05T15:39:35.869Z,101524.13
2023-05-05T15:42:03.848Z,101517.91
2023-05-05T15:44:31.479Z,101531.16
2023-05-05T15:46:58.449Z,101522.31
2023-05-05T15:49:25.458Z,101524.06
2023-05-05T15:51:52.370Z,101521.34
2023-05-05T15:54:19.273Z,101508.94
2023-05-05T15:56:46.155Z,101512.44
2023-05-05T15:59:13.001Z,101505.31
2023-05-05T16:01:40.072Z,101501.63
2023-05-05T16:04:07.006Z,101504.31
2023-05-05T16:06:33.884Z,101504.50
2023-05-05T16:09:00.758Z,101498.22
2023-05-05T16:11:27.765Z,101487.50
2023-05-05T16:13:54.621Z,101486.53
2023-05-05T16:16:21.821Z,101490.97
2023-05-05T16:18:48.887Z,101492.72
2023-05-05T16:21:15.827Z,101495.28
2023-05-05T16:23:43.379Z,101491.72
2023-05-05T16:26:10.431Z,101484.63
2023-05-05T16:28:37.699Z,101495.38
2023-05-05T16:31:04.879Z,101493.56
2023-05-05T16:33:31.883Z,101492.66
2023-05-05T16:35:58.827Z,101485.44
2023-05-05T16:38:25.748Z,101481.81
2023-05-05T16:40:52.700Z,101484.50
2023-05-05T16:43:19.745Z,101492.34
2023-05-05T16:45:46.792Z,101504.84
2023-05-05T16:48:14.746Z,101504.06
2023-05-05T16:50:41.832Z,101510.31
2023-05-05T16:53:10.051Z,101503.31
2023-05-05T16:55:37.455Z,101501.56
2023-05-05T16:58:04.890Z,101498.00
2023-05-05T17:00:31.908Z,101498.91
2023-05-05T17:02:59.044Z,101497.16
2023-05-05T17:05:26.934Z,101505.16
2023-05-05T17:07:54.232Z,101492.75
2023-05-05T17:10:21.215Z,101489.19
2023-05-05T17:12:48.274Z,101491.88
2023-05-05T17:15:15.233Z,101483.09
2023-05-05T17:17:43.199Z,101474.22
2023-05-05T17:20:11.099Z,101479.50
2023-05-05T17:22:38.073Z,101482.16
2023-05-05T17:25:07.389Z,101476.88
2023-05-05T17:27:34.403Z,101471.53
2023-05-05T17:30:01.382Z,101477.75
2023-05-05T17:32:28.297Z,101474.22
2023-05-05T17:34:56.353Z,101477.72
2023-05-05T17:37:23.348Z,101471.56
2023-05-05T17:39:50.248Z,101468.81
2023-05-05T17:42:22.728Z,101473.22
2023-05-05T17:44:50.141Z,101475.84
2023-05-05T17:47:22.168Z,101461.59
2023-05-05T17:49:49.284Z,101461.56
2023-05-05T17:52:16.237Z,101474.09
2023-05-05T17:54:43.155Z,101475.88
2023-05-05T17:57:10.141Z,101483.84
2023-05-05T17:59:37.138Z,101492.72
2023-05-05T18:02:04.071Z,101492.72
2023-05-05T18:04:31.003Z,101489.19
2023-05-05T18:06:57.874Z,101503.38
2023-05-05T18:09:24.747Z,101505.16
2023-05-05T18:11:53.639Z,101500.72
2023-05-05T18:14:22.468Z,101505.16
2023-05-05T18:16:52.524Z,101495.47
2023-05-05T18:19:21.452Z,101508.84
2023-05-05T18:21:49.314Z,101507.97
2023-05-05T18:24:20.359Z,101507.97
2023-05-05T18:26:50.211Z,101496.44
2023-05-05T18:29:18.375Z,101509.75
2023-05-05T18:31:48.584Z,101503.56
2023-05-05T18:34:16.854Z,101511.59
2023-05-05T18:36:43.888Z,101507.16
2023-05-05T18:39:11.380Z,101510.75
2023-05-05T18:41:38.332Z,101514.34
2023-05-05T18:44:05.457Z,101515.25
2023-05-05T18:46:32.509Z,101514.31
2023-05-05T18:49:01.057Z,101529.41
2023-05-05T18:51:28.628Z,101525.03
2023-05-05T18:53:55.620Z,101528.53
2023-05-05T18:56:22.481Z,101530.31
2023-05-05T18:58:49.417Z,101532.97
2023-05-05T19:01:16.509Z,101530.34
2023-05-05T19:03:48.094Z,101529.44
2023-05-05T19:06:15.972Z,101526.75
2023-05-05T19:08:43.722Z,101541.81
2023-05-05T19:11:10.714Z,101539.16
2023-05-05T19:16:11.693Z,101548.91
2023-05-05T19:18:39.054Z,101547.13
2023-05-05T19:21:05.932Z,101548.03
2023-05-05T19:23:33.421Z,101555.06
2023-05-05T19:26:00.684Z,101555.06
2023-05-05T19:28:27.595Z,101549.75
2023-05-05T19:30:54.487Z,101551.47
2023-05-05T19:33:21.566Z,101555.88
2023-05-05T19:35:48.556Z,101555.00
2023-05-05T19:38:15.745Z,101555.84
2023-05-05T19:40:43.205Z,101563.78
2023-05-05T19:43:10.103Z,101559.34
2023-05-05T19:45:37.052Z,101567.28
2023-05-05T19:48:04.147Z,101566.34
2023-05-05T19:50:31.738Z,101570.78
2023-05-05T19:52:58.744Z,101571.66
2023-05-05T19:55:25.791Z,101569.88
2023-05-05T19:57:52.765Z,101568.06
2023-05-05T20:00:19.909Z,101570.75
2023-05-05T20:02:49.037Z,101577.78
2023-05-05T20:05:17.636Z,101586.56
2023-05-05T20:07:46.330Z,101587.38
2023-05-05T20:10:13.575Z,101586.47
2023-05-05T20:12:47.762Z,101587.34
2023-05-05T20:15:18.650Z,101582.00
2023-05-05T20:17:46.956Z,101581.94
2023-05-05T20:20:19.982Z,101595.19
2023-05-05T20:22:47.778Z,101593.38
2023-05-05T20:25:16.356Z,101593.34
2023-05-05T20:27:44.000Z,101590.69
2023-05-05T20:30:12.281Z,101596.00
2023-05-05T20:32:39.415Z,101593.34
2023-05-05T20:35:07.321Z,101589.75
2023-05-05T20:37:34.340Z,101587.97
2023-05-05T20:40:01.281Z,101603.84
2023-05-05T20:42:29.626Z,101594.03
2023-05-05T20:44:56.829Z,101597.56
2023-05-05T20:47:24.523Z,101590.47
2023-05-05T20:49:52.419Z,101593.09
2023-05-05T20:52:19.841Z,101591.31
2023-05-05T20:54:46.739Z,101583.34
2023-05-05T20:57:13.667Z,101590.41
2023-05-05T20:59:40.612Z,101582.34
2023-05-05T21:02:07.614Z,101594.72
2023-05-05T21:04:34.531Z,101593.81
2023-05-05T21:07:01.426Z,101592.91
2023-05-05T21:09:28.435Z,101588.50
2023-05-05T21:11:55.329Z,101592.00
2023-05-05T21:14:22.262Z,101583.16
2023-05-05T21:16:49.172Z,101583.16
2023-05-05T21:19:16.465Z,101579.59
2023-05-05T21:21:43.381Z,101573.38
2023-05-05T21:24:10.575Z,101584.78
2023-05-05T21:26:37.507Z,101595.28
2023-05-05T21:29:04.520Z,101582.03
2023-05-05T21:31:31.444Z,101581.19
2023-05-05T21:33:58.431Z,101579.41
2023-05-05T21:36:25.472Z,101577.63
2023-05-05T21:38:55.347Z,101587.28
2023-05-05T21:41:23.230Z,101587.28
2023-05-05T21:43:50.138Z,101583.66
2023-05-05T21:46:18.111Z,101583.63
2023-05-05T21:48:46.589Z,101585.25
2023-05-05T21:51:13.490Z,101579.06
2023-05-05T21:53:40.723Z,101583.47
2023-05-05T21:56:10.468Z,101578.97
2023-05-05T21:58:37.404Z,101576.28
2023-05-05T22:01:04.358Z,101570.97
2023-05-05T22:03:31.419Z,101577.94
2023-05-05T22:05:58.493Z,101577.06
2023-05-05T22:08:25.446Z,101578.84
2023-05-05T22:10:52.341Z,101574.34
2023-05-05T22:13:19.302Z,101582.28
2023-05-05T22:15:47.447Z,101577.88
2023-05-05T22:18:15.328Z,101581.38
2023-05-05T22:20:42.301Z,101581.31
2023-05-05T22:23:09.298Z,101590.13
2023-05-05T22:25:36.137Z,101584.75
2023-05-05T22:28:03.164Z,101575.91
2023-05-05T22:30:30.096Z,101586.47
2023-05-05T22:32:57.051Z,101589.84
2023-05-05T22:35:23.984Z,101586.28
2023-05-05T22:37:50.856Z,101591.56
2023-05-05T22:40:17.744Z,101582.66
2023-05-05T22:42:44.677Z,101586.13
2023-05-05T22:45:12.191Z,101586.94
2023-05-05T22:47:39.493Z,101580.75
2023-05-05T22:50:07.831Z,101577.19
2023-05-05T22:52:34.882Z,101575.34
2023-05-05T22:55:01.841Z,101577.06
2023-05-05T22:57:28.769Z,101576.09
2023-05-05T22:59:55.824Z,101578.63
2023-05-05T23:02:22.791Z,101576.72
2023-05-05T23:04:51.180Z,101568.75
2023-05-05T23:07:18.496Z,101573.00
2023-05-05T23:09:46.753Z,101570.31
2023-05-05T23:12:13.906Z,101564.13
2023-05-05T23:14:41.076Z,101564.00
2023-05-05T23:17:07.988Z,101572.78
2023-05-05T23:19:35.109Z,101571.84
2023-05-05T23:22:02.636Z,101567.38
2023-05-05T23:24:29.797Z,101568.19
2023-05-05T23:27:03.777Z,101561.94
2023-05-05T23:29:30.912Z,101564.50
2023-05-05T23:31:57.901Z,101562.72
2023-05-05T23:34:25.880Z,101564.44
2023-05-05T23:36:52.899Z,101554.72
2023-05-05T23:39:19.748Z,101553.72
2023-05-05T23:41:46.683Z,101558.97
2023-05-05T23:44:13.543Z,101550.94
2023-05-05T23:46:40.582Z,101558.97
2023-05-05T23:49:07.484Z,101543.88
2023-05-05T23:51:34.769Z,101551.84
2023-05-05T23:54:01.700Z,101557.09
2023-05-05T23:56:28.584Z,101546.56
2023-05-05T23:58:56.203Z,101546.44
